sensor_id;sensor_type;location;lat;lon;timestamp;temperature;humidity
37446;DHT22;23307;51.136;14.942;2022-08-06T00:00:48;19.60;99.90
37446;DHT22;23307;51.136;14.942;2022-08-06T00:03:13;19.50;99.90
37446;DHT22;23307;51.136;14.942;2022-08-06T00:05:39;19.40;99.90
37446;DHT22;23307;51.136;14.942;2022-08-06T00:08:04;19.40;99.90
37446;DHT22;23307;51.136;14.942;2022-08-06T00:10:30;19.30;99.90
37446;DHT22;23307;51.136;14.942;2022-08-06T00:12:59;19.20;99.90
37446;DHT22;23307;51.136;14.942;2022-08-06T00:15:25;19.10;99.90
37446;DHT22;23307;51.136;14.942;2022-08-06T00:17:51;19.00;99.90
37446;DHT22;23307;51.136;14.942;2022-08-06T00:20:16;18.90;99.90
37446;DHT22;23307;51.136;14.942;2022-08-06T00:22:42;18.80;99.90
37446;DHT22;23307;51.136;14.942;2022-08-06T00:25:08;18.80;99.90
37446;DHT22;23307;51.136;14.942;2022-08-06T00:27:35;18.60;99.90
37446;DHT22;23307;51.136;14.942;2022-08-06T00:30:01;18.40;99.90
37446;DHT22;23307;51.136;14.942;2022-08-06T00:32:26;18.30;99.90
37446;DHT22;23307;51.136;14.942;2022-08-06T00:34:52;18.20;99.90
37446;DHT22;23307;51.136;14.942;2022-08-06T00:37:17;18.00;99.90
37446;DHT22;23307;51.136;14.942;2022-08-06T00:39:43;17.80;99.90
37446;DHT22;23307;51.136;14.942;2022-08-06T00:42:08;17.70;99.90
37446;DHT22;23307;51.136;14.942;2022-08-06T00:44:34;17.50;99.90
37446;DHT22;23307;51.136;14.942;2022-08-06T00:47:00;17.40;99.90
37446;DHT22;23307;51.136;14.942;2022-08-06T00:49:25;17.30;99.90
37446;DHT22;23307;51.136;14.942;2022-08-06T00:51:51;17.20;99.90
37446;DHT22;23307;51.136;14.942;2022-08-06T00:54:17;17.10;99.90
37446;DHT22;23307;51.136;14.942;2022-08-06T00:56:42;17.00;99.90
37446;DHT22;23307;51.136;14.942;2022-08-06T00:59:08;17.00;99.90
37446;DHT22;23307;51.136;14.942;2022-08-06T01:01:33;17.00;99.90
37446;DHT22;23307;51.136;14.942;2022-08-06T01:03:59;17.00;99.90
37446;DHT22;23307;51.136;14.942;2022-08-06T01:06:24;17.00;99.90
37446;DHT22;23307;51.136;14.942;2022-08-06T01:08:50;17.00;99.90
37446;DHT22;23307;51.136;14.942;2022-08-06T01:11:15;17.00;99.90
37446;DHT22;23307;51.136;14.942;2022-08-06T01:13:41;17.10;99.90
37446;DHT22;23307;51.136;14.942;2022-08-06T01:21:56;17.00;99.90
37446;DHT22;23307;51.136;14.942;2022-08-06T01:28:00;17.00;99.90
37446;DHT22;23307;51.136;14.942;2022-08-06T01:30:34;17.00;99.90
37446;DHT22;23307;51.136;14.942;2022-08-06T01:33:01;17.00;99.90
37446;DHT22;23307;51.136;14.942;2022-08-06T01:35:30;16.90;99.90
37446;DHT22;23307;51.136;14.942;2022-08-06T01:37:59;16.90;99.90
37446;DHT22;23307;51.136;14.942;2022-08-06T01:40:32;16.90;99.90
37446;DHT22;23307;51.136;14.942;2022-08-06T01:43:00;17.00;99.90
37446;DHT22;23307;51.136;14.942;2022-08-06T01:45:29;17.00;99.90
37446;DHT22;23307;51.136;14.942;2022-08-06T01:47:59;16.90;99.90
37446;DHT22;23307;51.136;14.942;2022-08-06T01:50:33;17.00;99.90
37446;DHT22;23307;51.136;14.942;2022-08-06T01:53:02;17.00;99.90
37446;DHT22;23307;51.136;14.942;2022-08-06T01:55:30;17.00;99.90
37446;DHT22;23307;51.136;14.942;2022-08-06T01:57:59;17.10;99.90
37446;DHT22;23307;51.136;14.942;2022-08-06T02:00:26;17.00;99.90
37446;DHT22;23307;51.136;14.942;2022-08-06T02:02:54;17.10;99.90
37446;DHT22;23307;51.136;14.942;2022-08-06T02:05:21;17.00;99.90
37446;DHT22;23307;51.136;14.942;2022-08-06T02:07:50;17.00;99.90
37446;DHT22;23307;51.136;14.942;2022-08-06T02:10:21;17.00;99.90
37446;DHT22;23307;51.136;14.942;2022-08-06T02:12:48;16.90;99.90
37446;DHT22;23307;51.136;14.942;2022-08-06T02:15:23;16.90;99.90
37446;DHT22;23307;51.136;14.942;2022-08-06T02:17:52;16.90;99.90
37446;DHT22;23307;51.136;14.942;2022-08-06T02:20:26;16.80;99.90
37446;DHT22;23307;51.136;14.942;2022-08-06T02:22:53;16.80;99.90
37446;DHT22;23307;51.136;14.942;2022-08-06T02:25:20;16.80;99.90
37446;DHT22;23307;51.136;14.942;2022-08-06T02:27:50;16.80;99.90
37446;DHT22;23307;51.136;14.942;2022-08-06T02:30:17;16.80;99.90
37446;DHT22;23307;51.136;14.942;2022-08-06T02:32:43;16.80;99.90
37446;DHT22;23307;51.136;14.942;2022-08-06T02:35:09;16.80;99.90
37446;DHT22;23307;51.136;14.942;2022-08-06T02:37:45;16.80;99.90
37446;DHT22;23307;51.136;14.942;2022-08-06T02:40:20;16.80;99.90
37446;DHT22;23307;51.136;14.942;2022-08-06T02:42:58;16.80;99.90
37446;DHT22;23307;51.136;14.942;2022-08-06T02:45:36;16.80;99.90
37446;DHT22;23307;51.136;14.942;2022-08-06T02:48:23;16.80;99.90
37446;DHT22;23307;51.136;14.942;2022-08-06T02:50:51;16.80;99.90
37446;DHT22;23307;51.136;14.942;2022-08-06T02:53:20;16.80;99.90
37446;DHT22;23307;51.136;14.942;2022-08-06T02:55:50;16.80;99.90
37446;DHT22;23307;51.136;14.942;2022-08-06T02:58:25;16.80;99.90
37446;DHT22;23307;51.136;14.942;2022-08-06T03:00:52;16.80;99.90
37446;DHT22;23307;51.136;14.942;2022-08-06T03:03:22;16.80;99.90
37446;DHT22;23307;51.136;14.942;2022-08-06T03:05:50;16.80;99.90
37446;DHT22;23307;51.136;14.942;2022-08-06T03:08:18;16.80;99.90
37446;DHT22;23307;51.136;14.942;2022-08-06T03:10:46;16.80;99.90
37446;DHT22;23307;51.136;14.942;2022-08-06T03:13:12;16.80;99.90
37446;DHT22;23307;51.136;14.942;2022-08-06T03:15:39;16.90;99.90
37446;DHT22;23307;51.136;14.942;2022-08-06T03:18:05;16.90;99.90
37446;DHT22;23307;51.136;14.942;2022-08-06T03:20:32;16.90;99.90
37446;DHT22;23307;51.136;14.942;2022-08-06T03:23:05;17.00;99.90
37446;DHT22;23307;51.136;14.942;2022-08-06T03:25:32;17.00;99.90
37446;DHT22;23307;51.136;14.942;2022-08-06T03:27:59;17.00;99.90
37446;DHT22;23307;51.136;14.942;2022-08-06T03:30:25;17.00;99.90
37446;DHT22;23307;51.136;14.942;2022-08-06T03:32:51;17.00;99.90
37446;DHT22;23307;51.136;14.942;2022-08-06T03:35:18;17.00;99.90
37446;DHT22;23307;51.136;14.942;2022-08-06T03:37:46;17.00;99.90
37446;DHT22;23307;51.136;14.942;2022-08-06T03:40:12;17.00;99.90
37446;DHT22;23307;51.136;14.942;2022-08-06T03:42:39;17.00;99.90
37446;DHT22;23307;51.136;14.942;2022-08-06T03:45:06;17.00;99.90
37446;DHT22;23307;51.136;14.942;2022-08-06T03:47:41;17.00;99.90
37446;DHT22;23307;51.136;14.942;2022-08-06T03:50:14;16.90;99.90
37446;DHT22;23307;51.136;14.942;2022-08-06T03:52:44;16.90;99.90
37446;DHT22;23307;51.136;14.942;2022-08-06T03:55:17;16.90;99.90
37446;DHT22;23307;51.136;14.942;2022-08-06T03:57:47;16.80;99.90
37446;DHT22;23307;51.136;14.942;2022-08-06T04:00:16;16.80;99.90
37446;DHT22;23307;51.136;14.942;2022-08-06T04:02:50;16.80;99.90
37446;DHT22;23307;51.136;14.942;2022-08-06T04:05:28;16.80;99.90
37446;DHT22;23307;51.136;14.942;2022-08-06T04:07:58;16.80;99.90
37446;DHT22;23307;51.136;14.942;2022-08-06T04:10:44;16.80;99.90
37446;DHT22;23307;51.136;14.942;2022-08-06T04:13:15;16.80;99.90
37446;DHT22;23307;51.136;14.942;2022-08-06T04:15:42;16.80;99.90
37446;DHT22;23307;51.136;14.942;2022-08-06T04:18:20;16.80;99.90
37446;DHT22;23307;51.136;14.942;2022-08-06T04:20:49;16.80;99.90
37446;DHT22;23307;51.136;14.942;2022-08-06T04:23:15;16.70;99.90
37446;DHT22;23307;51.136;14.942;2022-08-06T04:25:52;16.80;99.90
37446;DHT22;23307;51.136;14.942;2022-08-06T04:28:19;16.80;99.90
37446;DHT22;23307;51.136;14.942;2022-08-06T04:30:46;16.80;99.90
37446;DHT22;23307;51.136;14.942;2022-08-06T04:33:15;16.80;99.90
37446;DHT22;23307;51.136;14.942;2022-08-06T04:35:41;16.80;99.90
37446;DHT22;23307;51.136;14.942;2022-08-06T04:38:08;16.80;99.90
37446;DHT22;23307;51.136;14.942;2022-08-06T04:40:36;16.80;99.90
37446;DHT22;23307;51.136;14.942;2022-08-06T04:43:05;16.70;99.90
37446;DHT22;23307;51.136;14.942;2022-08-06T04:45:31;16.60;99.90
37446;DHT22;23307;51.136;14.942;2022-08-06T04:47:57;16.50;99.90
37446;DHT22;23307;51.136;14.942;2022-08-06T04:50:23;16.50;99.90
37446;DHT22;23307;51.136;14.942;2022-08-06T04:52:48;16.50;99.90
37446;DHT22;23307;51.136;14.942;2022-08-06T04:55:17;16.50;99.90
37446;DHT22;23307;51.136;14.942;2022-08-06T04:57:42;16.40;99.90
37446;DHT22;23307;51.136;14.942;2022-08-06T05:00:08;16.30;99.90
37446;DHT22;23307;51.136;14.942;2022-08-06T05:02:34;16.20;99.90
37446;DHT22;23307;51.136;14.942;2022-08-06T05:04:59;16.20;99.90
37446;DHT22;23307;51.136;14.942;2022-08-06T05:07:29;16.20;99.90
37446;DHT22;23307;51.136;14.942;2022-08-06T05:09:57;16.10;99.90
37446;DHT22;23307;51.136;14.942;2022-08-06T05:12:27;16.10;99.90
37446;DHT22;23307;51.136;14.942;2022-08-06T05:18:00;16.00;99.90
37446;DHT22;23307;51.136;14.942;2022-08-06T05:20:28;16.00;99.90
37446;DHT22;23307;51.136;14.942;2022-08-06T05:23:15;15.90;99.90
37446;DHT22;23307;51.136;14.942;2022-08-06T05:25:42;16.00;99.90
37446;DHT22;23307;51.136;14.942;2022-08-06T05:28:08;15.90;99.90
37446;DHT22;23307;51.136;14.942;2022-08-06T05:30:40;16.00;99.90
37446;DHT22;23307;51.136;14.942;2022-08-06T05:33:06;16.10;99.90
37446;DHT22;23307;51.136;14.942;2022-08-06T05:35:31;16.10;99.90
37446;DHT22;23307;51.136;14.942;2022-08-06T05:37:57;16.10;99.90
37446;DHT22;23307;51.136;14.942;2022-08-06T05:40:22;16.10;99.90
37446;DHT22;23307;51.136;14.942;2022-08-06T05:42:48;16.10;99.90
37446;DHT22;23307;51.136;14.942;2022-08-06T05:45:15;16.20;99.90
37446;DHT22;23307;51.136;14.942;2022-08-06T05:47:44;16.20;99.90
37446;DHT22;23307;51.136;14.942;2022-08-06T05:50:17;16.20;99.90
37446;DHT22;23307;51.136;14.942;2022-08-06T05:53:06;16.20;99.90
37446;DHT22;23307;51.136;14.942;2022-08-06T05:55:45;16.20;99.90
37446;DHT22;23307;51.136;14.942;2022-08-06T05:58:18;16.20;99.90
37446;DHT22;23307;51.136;14.942;2022-08-06T06:00:45;16.20;99.90
37446;DHT22;23307;51.136;14.942;2022-08-06T06:03:13;16.10;99.90
37446;DHT22;23307;51.136;14.942;2022-08-06T06:05:41;16.10;99.90
37446;DHT22;23307;51.136;14.942;2022-08-06T06:08:08;16.10;99.90
37446;DHT22;23307;51.136;14.942;2022-08-06T06:10:35;16.20;99.90
37446;DHT22;23307;51.136;14.942;2022-08-06T06:13:02;16.10;99.90
37446;DHT22;23307;51.136;14.942;2022-08-06T06:15:28;16.10;99.90
37446;DHT22;23307;51.136;14.942;2022-08-06T06:18:08;16.20;99.90
37446;DHT22;23307;51.136;14.942;2022-08-06T06:23:42;16.10;99.90
37446;DHT22;23307;51.136;14.942;2022-08-06T06:29:08;16.20;99.90
37446;DHT22;23307;51.136;14.942;2022-08-06T06:31:56;16.10;99.90
37446;DHT22;23307;51.136;14.942;2022-08-06T06:46:34;16.50;99.90
37446;DHT22;23307;51.136;14.942;2022-08-06T06:49:06;16.50;99.90
37446;DHT22;23307;51.136;14.942;2022-08-06T06:51:43;16.60;99.90
37446;DHT22;23307;51.136;14.942;2022-08-06T06:54:16;16.60;99.90
37446;DHT22;23307;51.136;14.942;2022-08-06T06:56:46;16.70;99.90
37446;DHT22;23307;51.136;14.942;2022-08-06T06:59:21;16.90;99.90
37446;DHT22;23307;51.136;14.942;2022-08-06T07:01:50;17.00;99.90
37446;DHT22;23307;51.136;14.942;2022-08-06T07:04:16;17.00;99.90
37446;DHT22;23307;51.136;14.942;2022-08-06T07:06:43;16.90;99.90
37446;DHT22;23307;51.136;14.942;2022-08-06T07:09:22;16.80;99.90
37446;DHT22;23307;51.136;14.942;2022-08-06T07:11:50;16.80;99.90
37446;DHT22;23307;51.136;14.942;2022-08-06T07:14:18;16.70;99.90
37446;DHT22;23307;51.136;14.942;2022-08-06T07:16:45;16.70;99.90
37446;DHT22;23307;51.136;14.942;2022-08-06T07:19:12;16.80;99.90
37446;DHT22;23307;51.136;14.942;2022-08-06T07:21:40;17.00;99.90
37446;DHT22;23307;51.136;14.942;2022-08-06T07:24:06;17.10;99.90
37446;DHT22;23307;51.136;14.942;2022-08-06T07:26:33;17.20;99.90
37446;DHT22;23307;51.136;14.942;2022-08-06T07:29:00;17.20;99.90
37446;DHT22;23307;51.136;14.942;2022-08-06T07:31:26;17.40;99.90
37446;DHT22;23307;51.136;14.942;2022-08-06T07:33:53;17.50;99.90
37446;DHT22;23307;51.136;14.942;2022-08-06T07:36:23;17.70;99.90
37446;DHT22;23307;51.136;14.942;2022-08-06T07:38:49;17.70;99.90
37446;DHT22;23307;51.136;14.942;2022-08-06T07:41:16;17.90;99.90
37446;DHT22;23307;51.136;14.942;2022-08-06T07:43:47;18.00;99.90
37446;DHT22;23307;51.136;14.942;2022-08-06T07:46:17;18.00;99.90
37446;DHT22;23307;51.136;14.942;2022-08-06T07:48:53;18.10;99.90
37446;DHT22;23307;51.136;14.942;2022-08-06T07:51:21;18.40;99.90
37446;DHT22;23307;51.136;14.942;2022-08-06T07:53:50;18.60;99.90
37446;DHT22;23307;51.136;14.942;2022-08-06T07:56:16;18.80;99.90
37446;DHT22;23307;51.136;14.942;2022-08-06T07:58:42;18.90;99.90
37446;DHT22;23307;51.136;14.942;2022-08-06T08:01:09;18.90;99.90
37446;DHT22;23307;51.136;14.942;2022-08-06T08:03:35;18.90;99.90
37446;DHT22;23307;51.136;14.942;2022-08-06T08:06:20;19.00;99.90
37446;DHT22;23307;51.136;14.942;2022-08-06T08:09:10;19.30;99.90
37446;DHT22;23307;51.136;14.942;2022-08-06T08:11:37;19.80;99.90
37446;DHT22;23307;51.136;14.942;2022-08-06T08:14:07;20.10;99.90
37446;DHT22;23307;51.136;14.942;2022-08-06T08:16:34;20.10;99.90
37446;DHT22;23307;51.136;14.942;2022-08-06T08:19:00;20.30;99.90
37446;DHT22;23307;51.136;14.942;2022-08-06T08:21:26;20.30;99.90
37446;DHT22;23307;51.136;14.942;2022-08-06T08:23:53;20.20;99.90
37446;DHT22;23307;51.136;14.942;2022-08-06T08:26:18;20.00;99.90
37446;DHT22;23307;51.136;14.942;2022-08-06T08:28:44;19.90;99.90
37446;DHT22;23307;51.136;14.942;2022-08-06T08:31:12;19.90;99.90
37446;DHT22;23307;51.136;14.942;2022-08-06T08:33:39;20.10;99.90
37446;DHT22;23307;51.136;14.942;2022-08-06T08:36:05;20.30;99.90
37446;DHT22;23307;51.136;14.942;2022-08-06T08:38:32;20.30;99.90
37446;DHT22;23307;51.136;14.942;2022-08-06T08:41:04;20.40;99.90
37446;DHT22;23307;51.136;14.942;2022-08-06T08:43:36;20.50;99.90
37446;DHT22;23307;51.136;14.942;2022-08-06T08:46:04;20.70;99.90
37446;DHT22;23307;51.136;14.942;2022-08-06T08:48:32;20.80;99.90
37446;DHT22;23307;51.136;14.942;2022-08-06T08:50:59;20.80;99.90
37446;DHT22;23307;51.136;14.942;2022-08-06T08:53:32;20.90;99.90
37446;DHT22;23307;51.136;14.942;2022-08-06T08:56:00;20.80;99.90
37446;DHT22;23307;51.136;14.942;2022-08-06T08:58:26;20.80;99.90
37446;DHT22;23307;51.136;14.942;2022-08-06T09:00:53;20.80;99.90
37446;DHT22;23307;51.136;14.942;2022-08-06T09:03:18;20.80;99.90
37446;DHT22;23307;51.136;14.942;2022-08-06T09:05:44;20.80;99.90
37446;DHT22;23307;51.136;14.942;2022-08-06T09:08:10;20.80;99.90
37446;DHT22;23307;51.136;14.942;2022-08-06T09:10:36;20.80;99.10
37446;DHT22;23307;51.136;14.942;2022-08-06T09:13:03;20.60;98.20
37446;DHT22;23307;51.136;14.942;2022-08-06T09:15:28;20.50;97.70
37446;DHT22;23307;51.136;14.942;2022-08-06T09:17:54;20.60;99.20
37446;DHT22;23307;51.136;14.942;2022-08-06T09:20:20;20.70;98.00
37446;DHT22;23307;51.136;14.942;2022-08-06T09:22:45;20.80;98.70
37446;DHT22;23307;51.136;14.942;2022-08-06T09:25:49;21.10;98.90
37446;DHT22;23307;51.136;14.942;2022-08-06T09:28:38;21.40;98.90
37446;DHT22;23307;51.136;14.942;2022-08-06T09:31:11;21.80;97.20
37446;DHT22;23307;51.136;14.942;2022-08-06T09:33:40;21.80;96.30
37446;DHT22;23307;51.136;14.942;2022-08-06T09:36:08;21.90;95.90
37446;DHT22;23307;51.136;14.942;2022-08-06T09:38:49;22.00;95.60
37446;DHT22;23307;51.136;14.942;2022-08-06T09:41:16;22.10;95.30
37446;DHT22;23307;51.136;14.942;2022-08-06T09:43:47;22.30;94.50
37446;DHT22;23307;51.136;14.942;2022-08-06T09:46:13;22.30;94.00
37446;DHT22;23307;51.136;14.942;2022-08-06T09:48:56;22.30;95.30
37446;DHT22;23307;51.136;14.942;2022-08-06T09:51:23;22.60;94.30
37446;DHT22;23307;51.136;14.942;2022-08-06T09:53:56;22.60;92.60
37446;DHT22;23307;51.136;14.942;2022-08-06T09:56:22;22.70;93.00
37446;DHT22;23307;51.136;14.942;2022-08-06T09:58:48;22.70;91.30
37446;DHT22;23307;51.136;14.942;2022-08-06T10:01:17;22.60;90.90
37446;DHT22;23307;51.136;14.942;2022-08-06T10:03:43;22.40;90.90
37446;DHT22;23307;51.136;14.942;2022-08-06T10:06:11;22.30;90.20
37446;DHT22;23307;51.136;14.942;2022-08-06T10:08:38;22.20;90.80
37446;DHT22;23307;51.136;14.942;2022-08-06T10:11:04;22.30;90.70
37446;DHT22;23307;51.136;14.942;2022-08-06T10:13:30;22.40;90.60
37446;DHT22;23307;51.136;14.942;2022-08-06T10:15:58;22.50;89.10
37446;DHT22;23307;51.136;14.942;2022-08-06T10:18:33;22.50;90.80
37446;DHT22;23307;51.136;14.942;2022-08-06T10:21:04;22.70;91.20
37446;DHT22;23307;51.136;14.942;2022-08-06T10:23:32;22.80;87.50
37446;DHT22;23307;51.136;14.942;2022-08-06T10:25:58;22.80;89.60
37446;DHT22;23307;51.136;14.942;2022-08-06T10:28:26;23.10;90.30
37446;DHT22;23307;51.136;14.942;2022-08-06T10:30:53;23.40;89.50
37446;DHT22;23307;51.136;14.942;2022-08-06T10:33:19;23.60;86.60
37446;DHT22;23307;51.136;14.942;2022-08-06T10:35:47;23.70;82.90
37446;DHT22;23307;51.136;14.942;2022-08-06T10:38:16;23.80;84.60
37446;DHT22;23307;51.136;14.942;2022-08-06T10:40:43;23.90;83.70
37446;DHT22;23307;51.136;14.942;2022-08-06T10:43:10;24.10;85.30
37446;DHT22;23307;51.136;14.942;2022-08-06T10:45:37;24.30;83.10
37446;DHT22;23307;51.136;14.942;2022-08-06T10:48:04;24.30;82.70
37446;DHT22;23307;51.136;14.942;2022-08-06T10:50:30;24.50;79.50
37446;DHT22;23307;51.136;14.942;2022-08-06T10:52:57;24.40;79.70
37446;DHT22;23307;51.136;14.942;2022-08-06T10:55:23;24.40;80.20
37446;DHT22;23307;51.136;14.942;2022-08-06T10:57:49;24.60;79.70
37446;DHT22;23307;51.136;14.942;2022-08-06T11:00:15;24.60;78.20
37446;DHT22;23307;51.136;14.942;2022-08-06T11:03:12;24.60;79.70
37446;DHT22;23307;51.136;14.942;2022-08-06T11:05:39;24.80;78.00
37446;DHT22;23307;51.136;14.942;2022-08-06T11:15:50;25.40;76.40
37446;DHT22;23307;51.136;14.942;2022-08-06T11:18:16;25.50;75.90
37446;DHT22;23307;51.136;14.942;2022-08-06T11:20:44;25.80;73.60
37446;DHT22;23307;51.136;14.942;2022-08-06T11:25:47;25.50;71.90
37446;DHT22;23307;51.136;14.942;2022-08-06T11:28:14;25.40;71.00
37446;DHT22;23307;51.136;14.942;2022-08-06T11:30:47;25.40;69.80
37446;DHT22;23307;51.136;14.942;2022-08-06T11:33:21;25.20;69.50
37446;DHT22;23307;51.136;14.942;2022-08-06T11:36:08;25.30;70.00
37446;DHT22;23307;51.136;14.942;2022-08-06T11:59:32;26.20;68.40
37446;DHT22;23307;51.136;14.942;2022-08-06T12:02:01;26.60;66.80
37446;DHT22;23307;51.136;14.942;2022-08-06T12:07:28;26.70;63.40
37446;DHT22;23307;51.136;14.942;2022-08-06T12:14:58;26.50;60.90
37446;DHT22;23307;51.136;14.942;2022-08-06T12:17:28;26.50;63.20
37446;DHT22;23307;51.136;14.942;2022-08-06T12:19:56;26.70;64.40
37446;DHT22;23307;51.136;14.942;2022-08-06T12:22:23;27.00;63.60
37446;DHT22;23307;51.136;14.942;2022-08-06T12:24:51;27.20;59.80
37446;DHT22;23307;51.136;14.942;2022-08-06T12:27:22;27.10;59.40
37446;DHT22;23307;51.136;14.942;2022-08-06T12:29:54;27.10;61.50
37446;DHT22;23307;51.136;14.942;2022-08-06T12:34:51;26.70;60.30
37446;DHT22;23307;51.136;14.942;2022-08-06T12:37:18;26.40;63.40
37446;DHT22;23307;51.136;14.942;2022-08-06T12:39:44;26.50;62.90
37446;DHT22;23307;51.136;14.942;2022-08-06T12:42:29;26.20;59.30
37446;DHT22;23307;51.136;14.942;2022-08-06T12:44:55;26.10;60.70
37446;DHT22;23307;51.136;14.942;2022-08-06T12:47:22;26.40;63.00
37446;DHT22;23307;51.136;14.942;2022-08-06T12:49:48;26.70;62.80
37446;DHT22;23307;51.136;14.942;2022-08-06T12:52:16;27.20;60.90
37446;DHT22;23307;51.136;14.942;2022-08-06T12:54:46;27.10;60.50
37446;DHT22;23307;51.136;14.942;2022-08-06T12:57:26;27.40;60.80
37446;DHT22;23307;51.136;14.942;2022-08-06T12:59:52;27.90;59.80
37446;DHT22;23307;51.136;14.942;2022-08-06T13:02:21;28.20;58.10
37446;DHT22;23307;51.136;14.942;2022-08-06T13:04:50;28.50;58.50
37446;DHT22;23307;51.136;14.942;2022-08-06T13:07:18;28.80;58.30
37446;DHT22;23307;51.136;14.942;2022-08-06T13:09:45;28.80;57.30
37446;DHT22;23307;51.136;14.942;2022-08-06T13:12:20;29.00;57.60
37446;DHT22;23307;51.136;14.942;2022-08-06T13:14:50;29.30;57.50
37446;DHT22;23307;51.136;14.942;2022-08-06T13:17:18;29.70;57.20
37446;DHT22;23307;51.136;14.942;2022-08-06T13:19:57;30.00;55.10
37446;DHT22;23307;51.136;14.942;2022-08-06T13:22:26;30.20;55.90
37446;DHT22;23307;51.136;14.942;2022-08-06T13:25:11;30.50;56.40
37446;DHT22;23307;51.136;14.942;2022-08-06T13:27:37;31.00;55.20
37446;DHT22;23307;51.136;14.942;2022-08-06T13:30:07;31.20;55.20
37446;DHT22;23307;51.136;14.942;2022-08-06T13:32:33;31.50;53.60
37446;DHT22;23307;51.136;14.942;2022-08-06T13:35:05;31.40;51.30
37446;DHT22;23307;51.136;14.942;2022-08-06T13:37:47;30.70;52.20
37446;DHT22;23307;51.136;14.942;2022-08-06T13:40:14;30.10;51.70
37446;DHT22;23307;51.136;14.942;2022-08-06T13:45:21;29.30;52.70
37446;DHT22;23307;51.136;14.942;2022-08-06T13:47:47;29.10;53.30
37446;DHT22;23307;51.136;14.942;2022-08-06T13:50:17;29.10;52.80
37446;DHT22;23307;51.136;14.942;2022-08-06T13:52:42;29.30;54.40
37446;DHT22;23307;51.136;14.942;2022-08-06T13:55:08;29.70;55.20
37446;DHT22;23307;51.136;14.942;2022-08-06T13:57:33;29.80;51.50
37446;DHT22;23307;51.136;14.942;2022-08-06T14:00:02;29.50;51.00
37446;DHT22;23307;51.136;14.942;2022-08-06T14:02:28;28.60;52.50
37446;DHT22;23307;51.136;14.942;2022-08-06T14:04:54;28.60;52.60
37446;DHT22;23307;51.136;14.942;2022-08-06T14:07:19;28.70;55.50
37446;DHT22;23307;51.136;14.942;2022-08-06T14:09:45;29.20;55.00
37446;DHT22;23307;51.136;14.942;2022-08-06T14:12:10;29.90;54.30
37446;DHT22;23307;51.136;14.942;2022-08-06T14:14:36;30.30;52.60
37446;DHT22;23307;51.136;14.942;2022-08-06T14:17:01;30.30;52.60
37446;DHT22;23307;51.136;14.942;2022-08-06T14:19:28;30.30;51.90
37446;DHT22;23307;51.136;14.942;2022-08-06T14:21:53;30.20;51.80
37446;DHT22;23307;51.136;14.942;2022-08-06T14:24:19;29.50;50.50
37446;DHT22;23307;51.136;14.942;2022-08-06T14:26:45;28.60;51.40
37446;DHT22;23307;51.136;14.942;2022-08-06T14:29:10;28.00;52.60
37446;DHT22;23307;51.136;14.942;2022-08-06T14:31:37;28.20;52.70
37446;DHT22;23307;51.136;14.942;2022-08-06T14:34:02;28.50;52.40
37446;DHT22;23307;51.136;14.942;2022-08-06T14:36:28;29.00;53.70
37446;DHT22;23307;51.136;14.942;2022-08-06T14:38:55;29.70;53.30
37446;DHT22;23307;51.136;14.942;2022-08-06T14:41:21;30.40;52.20
37446;DHT22;23307;51.136;14.942;2022-08-06T14:44:05;31.00;51.60
37446;DHT22;23307;51.136;14.942;2022-08-06T14:46:49;31.50;50.10
37446;DHT22;23307;51.136;14.942;2022-08-06T14:49:14;31.70;49.90
37446;DHT22;23307;51.136;14.942;2022-08-06T14:51:40;31.80;48.70
37446;DHT22;23307;51.136;14.942;2022-08-06T14:54:05;31.00;46.80
37446;DHT22;23307;51.136;14.942;2022-08-06T14:56:31;30.20;48.00
37446;DHT22;23307;51.136;14.942;2022-08-06T14:58:56;30.00;48.80
37446;DHT22;23307;51.136;14.942;2022-08-06T15:01:22;29.90;49.50
37446;DHT22;23307;51.136;14.942;2022-08-06T15:03:47;30.00;48.30
37446;DHT22;23307;51.136;14.942;2022-08-06T15:06:13;29.70;47.90
37446;DHT22;23307;51.136;14.942;2022-08-06T15:08:38;29.50;48.90
37446;DHT22;23307;51.136;14.942;2022-08-06T15:11:04;29.30;47.80
37446;DHT22;23307;51.136;14.942;2022-08-06T15:13:30;29.20;49.90
37446;DHT22;23307;51.136;14.942;2022-08-06T15:15:55;29.50;50.00
37446;DHT22;23307;51.136;14.942;2022-08-06T15:18:21;29.70;49.10
37446;DHT22;23307;51.136;14.942;2022-08-06T15:20:47;30.00;49.80
37446;DHT22;23307;51.136;14.942;2022-08-06T15:23:12;30.30;48.40
37446;DHT22;23307;51.136;14.942;2022-08-06T15:25:38;30.10;48.40
37446;DHT22;23307;51.136;14.942;2022-08-06T15:28:04;30.10;47.60
37446;DHT22;23307;51.136;14.942;2022-08-06T15:30:30;30.20;47.80
37446;DHT22;23307;51.136;14.942;2022-08-06T15:32:56;29.90;46.20
37446;DHT22;23307;51.136;14.942;2022-08-06T15:35:24;29.80;46.80
37446;DHT22;23307;51.136;14.942;2022-08-06T15:37:49;29.40;47.00
37446;DHT22;23307;51.136;14.942;2022-08-06T15:40:15;28.90;47.90
37446;DHT22;23307;51.136;14.942;2022-08-06T15:42:40;28.60;48.10
37446;DHT22;23307;51.136;14.942;2022-08-06T15:45:06;28.40;48.60
37446;DHT22;23307;51.136;14.942;2022-08-06T15:47:32;28.10;49.10
37446;DHT22;23307;51.136;14.942;2022-08-06T15:49:58;28.10;49.80
37446;DHT22;23307;51.136;14.942;2022-08-06T15:52:23;28.30;49.40
37446;DHT22;23307;51.136;14.942;2022-08-06T15:54:49;28.60;49.10
37446;DHT22;23307;51.136;14.942;2022-08-06T15:57:15;28.50;47.50
37446;DHT22;23307;51.136;14.942;2022-08-06T15:59:43;28.20;47.90
37446;DHT22;23307;51.136;14.942;2022-08-06T16:02:08;27.90;49.20
37446;DHT22;23307;51.136;14.942;2022-08-06T16:04:34;27.70;48.80
37446;DHT22;23307;51.136;14.942;2022-08-06T16:06:59;27.40;50.00
37446;DHT22;23307;51.136;14.942;2022-08-06T16:09:25;27.20;50.10
37446;DHT22;23307;51.136;14.942;2022-08-06T16:11:51;26.90;50.60
37446;DHT22;23307;51.136;14.942;2022-08-06T16:14:16;26.90;51.10
37446;DHT22;23307;51.136;14.942;2022-08-06T16:16:42;26.80;51.10
37446;DHT22;23307;51.136;14.942;2022-08-06T16:19:07;26.70;49.60
37446;DHT22;23307;51.136;14.942;2022-08-06T16:21:33;26.50;50.60
37446;DHT22;23307;51.136;14.942;2022-08-06T16:23:58;26.40;51.60
37446;DHT22;23307;51.136;14.942;2022-08-06T16:26:25;26.50;51.90
37446;DHT22;23307;51.136;14.942;2022-08-06T16:28:50;26.50;51.30
37446;DHT22;23307;51.136;14.942;2022-08-06T16:31:16;26.40;51.20
37446;DHT22;23307;51.136;14.942;2022-08-06T16:33:42;26.30;50.90
37446;DHT22;23307;51.136;14.942;2022-08-06T16:36:07;26.20;50.80
37446;DHT22;23307;51.136;14.942;2022-08-06T16:38:33;26.00;50.70